EDDR 240220Z 27002KT 1500 R27/0800VP2000D BR BKN003 18/17 Q1019 EDDR 240150Z 29004KT 2300 BR BKN001 18/17 Q1019 EDDR 240120Z AUTO 00000KT 2600 BKN002/// 18/18 Q1019 EDDR 240050Z AUTO 27003KT 2100 BKN002/// 18/18 Q1020 EDDR 240020Z AUTO 27003KT 230V290 0900 R27/P2000N BKN002/// 18/17 Q1020 EDDR 232350Z AUTO 00000KT 0600 R27/1100VP2000D BKN001/// 18/17 Q1020 EDDR 232320Z AUTO 00000KT 3500 BKN020/// 18/17 Q1020 EDDR 232250Z AUTO 30004KT 5000 NCD 18/17 Q1020 EDDR 232220Z AUTO 28003KT 9000 FEW075/// 18/17 Q1019 EDDR 232150Z AUTO 28002KT 9999 FEW020/// BKN080/// 18/17 Q1019 EDDR 232120Z AUTO 30002KT CAVOK 18/17 Q1019 EDDR 232050Z 29002KT 9999 FEW040 19/17 Q1019 EDDR 232020Z 34003KT 9999 FEW020 SCT100 19/17 Q1019 NOSIG EDDR 231950Z 33004KT 9999 FEW020 SCT100 20/18 Q1019 NOSIG EDDR 231920Z VRB02KT 9999 FEW015 FEW033CB SCT070 21/18 Q1018 NOSIG EDDR 231850Z 29004KT 9999 FEW015 FEW033CB SCT060 21/18 Q1018 NOSIG EDDR 231820Z 00000KT 9999 FEW016 FEW033CB SCT060 21/18 Q1018 NOSIG EDDR 231750Z 10003KT 080V140 9999 FEW016 FEW033CB SCT090 22/18 Q1018 NOSIG EDDR 231720Z VRB01KT 9999 FEW016 FEW025CB SCT100 22/18 Q1018 NOSIG EDDR 231650Z 09004KT 060V120 9999 FEW019 FEW025CB SCT100 22/18 Q1018 NOSIG EDDR 231620Z VRB02KT 9999 VCSH FEW019CB SCT025 BKN100 22/18 Q1018 TEMPO SHRA EDDR 231550Z 33004KT 290V030 9999 -SHRA SCT020CB SCT037 BKN110 22/18 Q1018 TEMPO SHRA EDDR 231520Z 27005KT 9999 VCSH FEW022CB SCT037 BKN110 23/19 Q1018 TEMPO SHRA EDDR 231450Z VRB02KT 9999 VCSH FEW022CB BKN110 23/18 Q1018 TEMPO SHRA EDDR 231420Z 26004KT 220V350 9999 VCSH FEW024CB BKN110 23/17 Q1018 TEMPO SHRA EDDR 231350Z 33002KT 9999 FEW024TCU BKN110 23/18 Q1018 NOSIG EDDR 231320Z VRB02KT 9999 FEW021 BKN110 23/18 Q1018 NOSIG EDDR 231250Z VRB02KT 9999 FEW020 BKN100 23/17 Q1018 NOSIG EDDR 231220Z 15004KT 090V200 9999 FEW017 BKN080 23/18 Q1018 NOSIG EDDR 231150Z 08003KT 020V130 9999 FEW016 BKN080 21/17 Q1018 NOSIG EDDR 231120Z VRB02KT 9999 SCT013 SCT055 BKN075 21/17 Q1018 NOSIG EDDR 231050Z 14003KT 090V220 9999 SCT009 BKN013 BKN050 20/17 Q1018 NOSIG EDDR 231020Z 10003KT 080V150 9999 SCT009 BKN014 BKN038 20/18 Q1018 NOSIG EDDR 230950Z 07003KT 020V130 9999 SCT006 BKN014 19/18 Q1018 NOSIG EDDR 230920Z VRB02KT 9999 FEW004 BKN006 19/18 Q1018 BECMG SCT006 EDDR 230850Z 08002KT 8000 -RA FEW004 BKN006 18/18 Q1018 BECMG SCT006 EDDR 230820Z 18001KT 5000 BR FEW003 BKN006 18/17 Q1018 BECMG SCT006 EDDR 230750Z 19003KT 150V210 3500 -RA BR FEW003 BKN005 18/17 Q1018 RERA BECMG 4000 EDDR 230720Z 16005KT 1700 +RA BR OVC003 18/17 Q1018 BECMG 4000 NSW EDDR 230650Z 08005KT 2500 RA BR BKN004 18/17 Q1017 BECMG 4000 NSW EDDR 230620Z 07004KT 040V100 3500 -RA BR BKN004 18/17 Q1017 TEMPO SHRA BKN005CB EDDR 230550Z 05005KT 4000 -DZ BR BKN004 18/17 Q1017 NOSIG EDDR 230520Z 06002KT 5000 BR BKN005 18/17 Q1017 TEMPO 4000 EDDR 230450Z 00000KT 5000 BR BKN005 18/17 Q1017 TEMPO 4000 EDDR 230420Z 00000KT 5000 BR BKN004 18/17 Q1017 TEMPO 4000 EDDR 230350Z 00000KT 6000 BKN004 18/17 Q1017 TEMPO 4000 BR EDDR 230320Z VRB02KT 9999 BKN005 18/17 Q1017 EDDR 230250Z 06001KT 9999 BKN006 18/17 Q1017 EDDR 230220Z 00000KT 9999 SCT006 BKN100 18/17 Q1017 EDDR 230150Z 00000KT 9999 SCT005 BKN100 18/17 Q1017 EDDR 230120Z AUTO 00000KT 9999 OVC006/// 18/17 Q1017 EDDR 230050Z AUTO 00000KT 9999 OVC006/// 18/17 Q1017 EDDR 230020Z AUTO 24003KT 9999 BKN007/// 18/17 Q1017 EDDR 222350Z AUTO 25004KT 9999 OVC008/// 18/17 Q1017 EDDR 222320Z AUTO 00000KT 9999 FEW009/// OVC095/// 18/17 Q1017 EDDR 222250Z AUTO 20004KT 170V240 CAVOK 18/17 Q1017 EDDR 222220Z AUTO 00000KT CAVOK 18/17 Q1017 EDDR 222150Z AUTO 09001KT CAVOK 18/17 Q1017 EDDR 222120Z AUTO VRB03KT 9999 FEW048/// BKN110/// 18/17 Q1017 EDDR 222050Z 03005KT 340V080 9999 SCT011 FEW043TCU BKN110 18/17 Q1018 TEMPO 16015G30KT 4000 TSRA EDDR 222020Z VRB03KT 9999 -SHRA FEW011 FEW043TCU BKN110 18/17 Q1018 TEMPO 16015G30KT 4000 TSRA EDDR 221950Z 18004KT 9999 -SHRA FEW011 SCT043TCU BKN110 19/17 Q1017 TEMPO 16015G30KT 4000 TSRA EDDR 221920Z 15005KT 110V180 9999 FEW011 SCT043TCU BKN110 19/17 Q1017 TEMPO 16015G30KT 4000 TSRA EDDR 221850Z 23007KT 9999 FEW043TCU BKN110 19/17 Q1016 TEMPO TSRA EDDR 221820Z 22007KT 9999 FEW045TCU BKN110 OVC230 20/17 Q1016 TEMPO TSRA EDDR 221750Z 24007KT 9999 FEW050TCU BKN120 OVC230 20/17 Q1016 TEMPO TSRA EDDR 221720Z 21007KT 170V250 9999 FEW060TCU BKN130 OVC230 20/17 Q1016 TEMPO TSRA EDDR 221650Z 22009KT 190V250 9999 FEW060TCU SCT130 OVC230 20/17 Q1016 TEMPO TSRA EDDR 221620Z 21011KT 9999 FEW014 FEW050CB SCT080 BKN230 20/17 Q1016 TEMPO TSRA EDDR 221550Z 21013KT 180V240 9999 FEW043 FEW050CB BKN260 21/17 Q1016 TEMPO TSRAGR EDDR 221520Z 21018KT 9999 FEW043 FEW050CB SCT060TCU BKN090 23/16 Q1015 TEMPO 18015G35KT TSRAGR SCT040CB

METAR Messwerte

Zurück zur Übersicht

Ort
m ü. NN
Zeit Temperatur Taupunkt Rel.
Luftfeuchte
Luftdruck:
Altimeter
NN
Station
Wind in Beaufort
(Knoten)
Sichtweite
(Meter)
Wolken
(Meter über Grund)
Wettererscheinung
Saarbrücken/Ensheim
320
So 24.07. 04:20181794 %1019
1019
981
W 1 (2)1500Stark bewölkt (91)Nebeldunst
Saarbrücken/Ensheim
320
So 24.07. 03:50181794 %1019
1019
981
WNW 2 (4)2300Stark bewölkt (30)Nebeldunst
Saarbrücken/Ensheim
320
So 24.07. 03:201818100 %1019
1019
981
Windstill2600Stark bewölkt (61) 
Saarbrücken/Ensheim
320
So 24.07. 02:501818100 %1020
1020
982
W 2 (3)2100Stark bewölkt (61) 
Saarbrücken/Ensheim
320
So 24.07. 02:20181794 %1020
1020
982
W 2 (3)
SW - WNW
900Stark bewölkt (61) 
Saarbrücken/Ensheim
320
So 24.07. 01:50181794 %1020
1020
982
Windstill600Stark bewölkt (30) 
Saarbrücken/Ensheim
320
So 24.07. 01:20181794 %1020
1020
982
Windstill3500Stark bewölkt (610) 
Saarbrücken/Ensheim
320
So 24.07. 00:50181794 %1020
1020
982
WNW 2 (4)5000  
Saarbrücken/Ensheim
320
So 24.07. 00:20181794 %1019
1019
981
W 2 (3)9000Leicht bewölkt (2300) 
Saarbrücken/Ensheim
320
Sa 23.07. 23:50181794 %1019
1019
981
W 1 (2)>= 10000Stark bewölkt (2400)
Leicht bewölkt (610)
 
Saarbrücken/Ensheim
320
Sa 23.07. 23:20181794 %1019
1019
981
WNW 1 (2)>= 10000Nicht signifikant 
Saarbrücken/Ensheim
320
Sa 23.07. 22:50191788 %1019
1019
981
WNW 1 (2)>= 10000Leicht bewölkt (1200) 
Saarbrücken/Ensheim
320
Sa 23.07. 22:20191788 %1019
1019
981
NNW 2 (3)>= 10000Wolkig (3000)
Leicht bewölkt (610)
 
Saarbrücken/Ensheim
320
Sa 23.07. 21:50201888 %1019
1018
981
NNW 2 (4)>= 10000Wolkig (3000)
Leicht bewölkt (610)
 
Saarbrücken/Ensheim
320
Sa 23.07. 21:20211883 %1018
1017
980
Uml 1 (2)>= 10000Wolkig (2100)
Leicht bewölkt Cb (1000)
Leicht bewölkt (460)
 
Saarbrücken/Ensheim
320
Sa 23.07. 20:50211883 %1018
1017
980
WNW 2 (4)>= 10000Wolkig (1800)
Leicht bewölkt Cb (1000)
Leicht bewölkt (460)
 
Saarbrücken/Ensheim
320
Sa 23.07. 20:20211883 %1018
1017
980
Windstill>= 10000Wolkig (1800)
Leicht bewölkt Cb (1000)
Leicht bewölkt (490)
 
Saarbrücken/Ensheim
320
Sa 23.07. 19:50221878 %1018
1017
980
O 2 (3)
O - SO
>= 10000Wolkig (2700)
Leicht bewölkt Cb (1000)
Leicht bewölkt (490)
 
Saarbrücken/Ensheim
320
Sa 23.07. 19:20221878 %1018
1017
980
Uml 1 (1)>= 10000Wolkig (3000)
Leicht bewölkt Cb (760)
Leicht bewölkt (490)
 
Saarbrücken/Ensheim
320
Sa 23.07. 18:50221878 %1018
1017
980
O 2 (4)
ONO - OSO
>= 10000Wolkig (3000)
Leicht bewölkt Cb (760)
Leicht bewölkt (580)
 
Saarbrücken/Ensheim
320
Sa 23.07. 18:20221878 %1018
1017
980
Uml 1 (2)>= 10000Stark bewölkt (3000)
Wolkig (760)
Leicht bewölkt Cb (580)
 Bald möglich: Regen-Schauer
Saarbrücken/Ensheim
320
Sa 23.07. 17:50221878 %1018
1017
980
NNW 2 (4)
WNW - NNO
>= 10000Stark bewölkt (3400)
Wolkig (1100)
Wolkig Cb (610)
Regen-Schauer (schwach)
Bald möglich: Regen-Schauer
Saarbrücken/Ensheim
320
Sa 23.07. 17:20231978 %1018
1017
980
W 2 (5)>= 10000Stark bewölkt (3400)
Wolkig (1100)
Leicht bewölkt Cb (670)
 Bald möglich: Regen-Schauer
Saarbrücken/Ensheim
320
Sa 23.07. 16:50231873 %1018
1017
980
Uml 1 (2)>= 10000Stark bewölkt (3400)
Leicht bewölkt Cb (670)
 Bald möglich: Regen-Schauer
Saarbrücken/Ensheim
320
Sa 23.07. 16:20231769 %1018
1017
980
W 2 (4)
SW - N
>= 10000Stark bewölkt (3400)
Leicht bewölkt Cb (730)
 Bald möglich: Regen-Schauer
Saarbrücken/Ensheim
320
Sa 23.07. 15:50231873 %1018
1017
980
NNW 1 (2)>= 10000Stark bewölkt (3400)
Leicht bewölkt (730)
 
Saarbrücken/Ensheim
320
Sa 23.07. 15:20231873 %1018
1017
980
Uml 1 (2)>= 10000Stark bewölkt (3400)
Leicht bewölkt (640)
 
Saarbrücken/Ensheim
320
Sa 23.07. 14:50231769 %1018
1017
980
Uml 1 (2)>= 10000Stark bewölkt (3000)
Leicht bewölkt (610)
 
Saarbrücken/Ensheim
320
Sa 23.07. 14:20231873 %1018
1017
980
SSO 2 (4)
O - SSW
>= 10000Stark bewölkt (2400)
Leicht bewölkt (520)
 
Saarbrücken/Ensheim
320
Sa 23.07. 13:50211778 %1018
1017
980
O 2 (3)
NNO - SO
>= 10000Stark bewölkt (2400)
Leicht bewölkt (490)
 
Saarbrücken/Ensheim
320
Sa 23.07. 13:20211778 %1018
1017
980
Uml 1 (2)>= 10000Stark bewölkt (2300)
Wolkig (1700)
Wolkig (400)
 
Saarbrücken/Ensheim
320
Sa 23.07. 12:50201783 %1018
1017
980
SO 2 (3)
O - SW
>= 10000Stark bewölkt (1500)
Stark bewölkt (400)
Wolkig (270)
 
Saarbrücken/Ensheim
320
Sa 23.07. 12:20201888 %1018
1017
980
O 2 (3)
O - SSO
>= 10000Stark bewölkt (1200)
Stark bewölkt (430)
Wolkig (270)
 
Saarbrücken/Ensheim
320
Sa 23.07. 11:50191894 %1018
1018
980
ONO 2 (3)
NNO - SO
>= 10000Stark bewölkt (430)
Wolkig (180)
 
Saarbrücken/Ensheim
320
Sa 23.07. 11:20191894 %1018
1018
980
Uml 1 (2)>= 10000Stark bewölkt (180)
Leicht bewölkt (120)
 
Saarbrücken/Ensheim
320
Sa 23.07. 10:501818100 %1018
1018
980
O 1 (2)8000Stark bewölkt (180)
Leicht bewölkt (120)
Regen (schwach)
Saarbrücken/Ensheim
320
Sa 23.07. 10:20181794 %1018
1018
980
S 1 (1)5000Stark bewölkt (180)
Leicht bewölkt (91)
Nebeldunst
Saarbrücken/Ensheim
320
Sa 23.07. 09:50181794 %1018
1018
980
S 2 (3)
SSO - SSW
3500Stark bewölkt (150)
Leicht bewölkt (91)
Regen (schwach)
Nebeldunst
Saarbrücken/Ensheim
320
Sa 23.07. 09:20181794 %1018
1018
980
SSO 2 (5)1700Bedeckt (91)Regen (stark)
Nebeldunst
Saarbrücken/Ensheim
320
Sa 23.07. 08:50181794 %1017
1017
979
O 2 (5)2500Stark bewölkt (120)Regen
Nebeldunst
Saarbrücken/Ensheim
320
Sa 23.07. 08:20181794 %1017
1017
979
ONO 2 (4)
NO - O
3500Stark bewölkt (120)Regen (schwach)
Nebeldunst
Bald möglich: Regen-Schauer
Saarbrücken/Ensheim
320
Sa 23.07. 07:50181794 %1017
1017
979
NO 2 (5)4000Stark bewölkt (120)Nieselregen (schwach)
Nebeldunst
Saarbrücken/Ensheim
320
Sa 23.07. 07:20181794 %1017
1017
979
ONO 1 (2)5000Stark bewölkt (150)Nebeldunst
Saarbrücken/Ensheim
320
Sa 23.07. 06:50181794 %1017
1017
979
Windstill5000Stark bewölkt (150)Nebeldunst
Saarbrücken/Ensheim
320
Sa 23.07. 06:20181794 %1017
1017
979
Windstill5000Stark bewölkt (120)Nebeldunst
Saarbrücken/Ensheim
320
Sa 23.07. 05:50181794 %1017
1017
979
Windstill6000Stark bewölkt (120) Bald möglich: Nebeldunst
Saarbrücken/Ensheim
320
Sa 23.07. 05:20181794 %1017
1017
979
Uml 1 (2)>= 10000Stark bewölkt (150) 
Saarbrücken/Ensheim
320
Sa 23.07. 04:50181794 %1017
1017
979
ONO 1 (1)>= 10000Stark bewölkt (180) 
Saarbrücken/Ensheim
320
Sa 23.07. 04:20181794 %1017
1017
979
Windstill>= 10000Stark bewölkt (3000)
Wolkig (180)
 
Saarbrücken/Ensheim
320
Sa 23.07. 03:50181794 %1017
1017
979
Windstill>= 10000Stark bewölkt (3000)
Wolkig (150)
 
Saarbrücken/Ensheim
320
Sa 23.07. 03:20181794 %1017
1017
979
Windstill>= 10000Bedeckt (180) 
Saarbrücken/Ensheim
320
Sa 23.07. 02:50181794 %1017
1017
979
Windstill>= 10000Bedeckt (180) 
Saarbrücken/Ensheim
320
Sa 23.07. 02:20181794 %1017
1017
979
WSW 2 (3)>= 10000Stark bewölkt (210) 
Saarbrücken/Ensheim
320
Sa 23.07. 01:50181794 %1017
1017
979
WSW 2 (4)>= 10000Bedeckt (240) 
Saarbrücken/Ensheim
320
Sa 23.07. 01:20181794 %1017
1017
979
Windstill>= 10000Bedeckt (2900)
Leicht bewölkt (270)
 
Saarbrücken/Ensheim
320
Sa 23.07. 00:50181794 %1017
1017
979
SSW 2 (4)
S - WSW
>= 10000Nicht signifikant 
Saarbrücken/Ensheim
320
Sa 23.07. 00:20181794 %1017
1017
979
Windstill>= 10000Nicht signifikant 
Saarbrücken/Ensheim
320
Fr 22.07. 23:50181794 %1017
1017
979
O 1 (1)>= 10000Nicht signifikant 
Saarbrücken/Ensheim
320
Fr 22.07. 23:20181794 %1017
1017
979
Uml 2 (3)>= 10000Stark bewölkt (3400)
Leicht bewölkt (1500)
 
Saarbrücken/Ensheim
320
Fr 22.07. 22:50181794 %1018
1018
980
NNO 2 (5)
NNW - O
Bald möglich:
SSO 4 (15) - 7 (30)
>= 10000Stark bewölkt (3400)
Leicht bewölkt (1300)
Wolkig (340)
 Bald möglich: Gewitter mit Regen
Saarbrücken/Ensheim
320
Fr 22.07. 22:20181794 %1018
1018
980
Uml 2 (3)
Bald möglich:
SSO 4 (15) - 7 (30)
>= 10000Stark bewölkt (3400)
Leicht bewölkt (1300)
Leicht bewölkt (340)
Regen-Schauer (schwach)
Bald möglich: Gewitter mit Regen
Saarbrücken/Ensheim
320
Fr 22.07. 21:50191788 %1017
1017
979
S 2 (4)
Bald möglich:
SSO 4 (15) - 7 (30)
>= 10000Stark bewölkt (3400)
Wolkig (1300)
Leicht bewölkt (340)
Regen-Schauer (schwach)
Bald möglich: Gewitter mit Regen
Saarbrücken/Ensheim
320
Fr 22.07. 21:20191788 %1017
1017
979
SSO 2 (5)
OSO - S
Bald möglich:
SSO 4 (15) - 7 (30)
>= 10000Stark bewölkt (3400)
Wolkig (1300)
Leicht bewölkt (340)
 Bald möglich: Gewitter mit Regen
Saarbrücken/Ensheim
320
Fr 22.07. 20:50191788 %1016
1015
978
SW 3 (7)>= 10000Stark bewölkt (3400)
Leicht bewölkt (1300)
 Bald möglich: Gewitter mit Regen
Saarbrücken/Ensheim
320
Fr 22.07. 20:20201783 %1016
1015
978
SW 3 (7)>= 10000Bedeckt (7000)
Stark bewölkt (3400)
Leicht bewölkt (1400)
 Bald möglich: Gewitter mit Regen
Saarbrücken/Ensheim
320
Fr 22.07. 19:50201783 %1016
1015
978
WSW 3 (7)>= 10000Bedeckt (7000)
Stark bewölkt (3700)
Leicht bewölkt (1500)
 Bald möglich: Gewitter mit Regen
Saarbrücken/Ensheim
320
Fr 22.07. 19:20201783 %1016
1015
978
SSW 3 (7)
S - WSW
>= 10000Bedeckt (7000)
Stark bewölkt (4000)
Leicht bewölkt (1800)
 Bald möglich: Gewitter mit Regen
Saarbrücken/Ensheim
320
Fr 22.07. 18:50201783 %1016
1015
978
SW 3 (9)
S - WSW
>= 10000Bedeckt (7000)
Wolkig (4000)
Leicht bewölkt (1800)
 Bald möglich: Gewitter mit Regen
Saarbrücken/Ensheim
320
Fr 22.07. 18:20201783 %1016
1015
978
SSW 4 (11)>= 10000Stark bewölkt (7000)
Wolkig (2400)
Leicht bewölkt Cb (1500)
Leicht bewölkt (430)
 Bald möglich: Gewitter mit Regen
Saarbrücken/Ensheim
320
Fr 22.07. 17:50211778 %1016
1015
978
SSW 4 (13)
S - WSW
>= 10000Stark bewölkt (7900)
Leicht bewölkt Cb (1500)
Leicht bewölkt (1300)
 Bald möglich: Gewitter mit Regen/Hagel
Saarbrücken/Ensheim
320
Fr 22.07. 17:20231665 %1015
1014
977
SSW 5 (18)
Bald möglich:
S 4 (15) - 8 (35)
>= 10000Stark bewölkt (2700)
Wolkig (1800)
Leicht bewölkt Cb (1500)
Leicht bewölkt (1300)
 Bald möglich: Gewitter mit Regen/Hagel

Altimeter: Einstellung am Altimeter (Höhenmesser), die Höhe 0 muss auf diesen Luftdruckwert zeigen, damit das Gerät die Stationshöhe richtig anzeigt.

NN: Luftdruck reduziert auf "Normal Null", auf Meereshöhe, dieser von der Temperatur abhängige Wert wird bisweilen unkorrekt einfach als "Luftdruck" bezeichnet. Eigentlich nur eine fiktive Größe, die es erlaubt, Stationen auf unterschiedlichen Höhen miteinander zu vergleichen.

Station: Realer Luftdruck an der Station.